Time;durP1;ratioP1;P1;durP2;ratioP2;P2;SDS_P1;SDS_P2;PMS_P1;PMS_P2;Temp;Humidity;BMP_temperature;BMP_pressure;BME280_temperature;BME280_humidity;BME280_pressure;Samples;Min_cycle;Max_cycle;Signal;HPM_P1;HPM_P2
2023/05/22 00:00:40;;;;;;;11.68;10.40;;;;;;;18.67;71.42;96304.81;4893645;29;20104;-74
2023/05/22 00:03:09;;;;;;;10.73;9.57;;;;;;;18.65;66.45;96298.13;4899087;29;20061;-74
2023/05/22 00:05:37;;;;;;;10.35;9.20;;;;;;;18.66;69.57;96302.41;4900508;29;20592;-75
2023/05/22 00:08:10;;;;;;;12.95;10.20;;;;;;;18.70;70.22;96295.59;4901645;29;20048;-76
2023/05/22 00:10:38;;;;;;;11.98;9.73;;;;;;;18.69;70.55;96296.63;4900541;29;20052;-75
2023/05/22 00:13:07;;;;;;;10.73;9.45;;;;;;;18.71;73.91;96302.47;4900437;29;20050;-76
2023/05/22 00:15:34;;;;;;;12.15;10.88;;;;;;;18.69;74.40;96291.34;4896940;29;20674;-75
2023/05/22 00:18:02;;;;;;;11.30;9.05;;;;;;;18.70;71.42;96295.59;4881751;29;20087;-76
2023/05/22 00:20:30;;;;;;;9.63;8.32;;;;;;;18.66;64.87;96291.84;4880431;29;20556;-76
2023/05/22 00:22:59;;;;;;;9.25;7.80;;;;;;;18.62;63.29;96288.84;4879647;29;20502;-76
2023/05/22 00:25:27;;;;;;;12.02;8.15;;;;;;;18.59;60.75;96280.63;4880490;29;20144;-76
2023/05/22 00:27:55;;;;;;;14.48;10.02;;;;;;;18.62;69.11;96282.78;4879992;29;20136;-76
2023/05/22 00:30:24;;;;;;;12.25;10.98;;;;;;;18.62;65.91;96293.34;4880820;29;20057;-76
2023/05/22 00:32:51;;;;;;;12.45;11.15;;;;;;;18.50;64.34;96286.31;4885768;29;20625;-76
2023/05/22 00:35:19;;;;;;;15.65;13.55;;;;;;;18.44;70.20;96287.25;4890384;29;20577;-76
2023/05/22 00:37:47;;;;;;;13.68;12.27;;;;;;;18.33;66.35;96285.50;4891376;29;20052;-76
2023/05/22 00:40:15;;;;;;;15.25;13.65;;;;;;;18.35;74.64;96290.53;4888613;29;20063;-76
2023/05/22 00:42:43;;;;;;;16.02;11.50;;;;;;;18.29;66.35;96289.66;4881887;29;20064;-76
2023/05/22 00:45:11;;;;;;;11.00;9.27;;;;;;;18.20;63.85;96285.78;4881673;29;20045;-76
2023/05/22 00:47:40;;;;;;;11.75;9.25;;;;;;;18.16;62.32;96284.66;4881266;29;20140;-76
2023/05/22 00:50:11;;;;;;;13.82;12.30;;;;;;;18.21;69.22;96282.09;4881031;29;20049;-76
2023/05/22 00:52:45;;;;;;;10.27;9.27;;;;;;;18.21;71.47;96287.38;4896168;29;20052;-76
2023/05/22 00:55:15;;;;;;;13.45;8.57;;;;;;;18.18;63.16;96285.22;4879700;29;20053;-76
2023/05/22 00:57:44;;;;;;;11.65;9.25;;;;;;;18.17;62.70;96275.69;4888807;29;20057;-76
2023/05/22 01:00:15;;;;;;;11.43;10.30;;;;;;;18.20;72.20;96285.78;4898279;29;20101;-76
2023/05/22 01:02:44;;;;;;;12.43;9.27;;;;;;;18.15;63.35;96280.41;4897654;29;20139;-77
2023/05/22 01:05:16;;;;;;;11.68;8.98;;;;;;;18.12;62.94;96276.41;4896656;29;20561;-76
2023/05/22 01:07:44;;;;;;;14.27;8.98;;;;;;;18.11;61.83;96282.75;4897294;29;20060;-76
2023/05/22 01:10:12;;;;;;;8.82;7.93;;;;;;;18.09;61.51;96279.53;4897501;29;20080;-76
2023/05/22 01:12:52;;;;;;;12.32;11.10;;;;;;;18.14;75.04;96289.38;4897377;29;20053;-76
2023/05/22 01:15:26;;;;;;;13.45;12.00;;;;;;;18.24;76.45;96292.22;4897953;29;20051;-76
2023/05/22 01:18:09;;;;;;;14.98;12.82;;;;;;;18.13;68.95;96285.94;4899408;29;20057;-76
2023/05/22 01:20:41;;;;;;;15.35;11.68;;;;;;;18.01;67.82;96287.81;4898921;29;20121;-77
2023/05/22 01:23:33;;;;;;;14.77;13.20;;;;;;;17.88;74.14;96288.91;4898876;29;20540;-76
2023/05/22 01:26:38;;;;;;;17.75;12.30;;;;;;;17.84;71.62;96287.78;4898666;29;20052;-76
2023/05/22 01:29:24;;;;;;;14.45;12.48;;;;;;;17.73;75.28;96285.94;4840792;29;20054;-76
2023/05/22 01:31:57;;;;;;;12.52;11.23;;;;;;;17.65;67.46;96295.84;4892704;29;20060;-76
2023/05/22 01:34:26;;;;;;;13.25;11.85;;;;;;;17.59;69.82;96302.03;4898497;29;20119;-76
2023/05/22 01:36:56;;;;;;;13.55;11.70;;;;;;;17.49;66.25;96307.94;4898529;29;20052;-76
2023/05/22 01:39:25;;;;;;;12.88;10.70;;;;;;;17.38;65.50;96305.28;4899213;29;20093;-77
2023/05/22 01:41:53;;;;;;;13.23;11.80;;;;;;;17.33;68.11;96303.34;4898952;29;20083;-76
2023/05/22 01:44:22;;;;;;;14.52;11.75;;;;;;;17.30;67.06;96309.09;4898545;29;20087;-76
2023/05/22 01:46:49;;;;;;;16.33;14.73;;;;;;;17.35;77.26;96311.84;4898635;29;20045;-76
2023/05/22 01:49:18;;;;;;;15.02;12.88;;;;;;;17.33;72.38;96318.38;4898197;29;20489;-76
2023/05/22 01:51:52;;;;;;;16.65;14.88;;;;;;;17.33;81.96;96318.38;4898449;29;20151;-76
2023/05/22 01:54:24;;;;;;;14.98;12.82;;;;;;;17.31;80.29;96321.25;4898302;29;20052;-76
2023/05/22 01:56:54;;;;;;;13.65;12.20;;;;;;;17.23;71.03;96325.03;4898453;29;20060;-76
2023/05/22 01:59:32;;;;;;;16.05;12.48;;;;;;;17.16;76.66;96324.34;4898345;29;20048;-76
2023/05/22 02:02:04;;;;;;;13.30;11.57;;;;;;;17.08;70.57;96325.50;4898421;29;20057;-76
2023/05/22 02:04:35;;;;;;;;;;;;;;;17.05;69.23;96322.50;4898623;29;20056;-76
2023/05/22 02:07:03;;;;;;;15.23;12.85;;;;;;;16.93;67.82;96327.00;4898380;29;19971;-76
2023/05/22 02:09:32;;;;;;;15.00;12.57;;;;;;;16.83;67.12;96328.34;4898072;29;20497;-76
2023/05/22 02:12:02;;;;;;;14.98;12.63;;;;;;;16.78;68.73;96327.41;4912186;29;20052;-76
2023/05/22 02:14:31;;;;;;;17.45;15.57;;;;;;;16.87;78.89;96326.84;4911649;29;20052;-76
2023/05/22 02:17:00;;;;;;;18.58;14.82;;;;;;;16.91;77.11;96329.06;4899718;29;20120;-76
2023/05/22 02:19:28;;;;;;;16.35;13.20;;;;;;;16.84;71.63;96326.53;4898562;29;20063;-76
2023/05/22 02:21:57;;;;;;;18.08;13.73;;;;;;;16.73;68.48;96330.72;4904803;29;20052;-77
2023/05/22 02:24:25;;;;;;;16.65;13.77;;;;;;;16.65;67.99;96331.03;4897938;29;20048;-76
2023/05/22 02:26:52;;;;;;;17.42;14.10;;;;;;;16.57;67.80;96332.16;4897831;29;20081;-76
2023/05/22 02:29:20;;;;;;;16.90;15.07;;;;;;;16.48;67.69;96331.69;4897758;29;20100;-76
2023/05/22 02:31:47;;;;;;;16.90;13.63;;;;;;;16.41;68.15;96319.66;4897801;29;20048;-76
2023/05/22 02:34:16;;;;;;;19.73;17.58;;;;;;;16.48;76.86;96328.25;4897899;29;20053;-76
2023/05/22 02:36:43;;;;;;;17.00;14.88;;;;;;;16.45;75.22;96318.97;4897872;29;20059;-76
2023/05/22 02:39:12;;;;;;;17.33;13.88;;;;;;;16.46;79.33;96320.59;4897435;29;20048;-76
2023/05/22 02:41:40;;;;;;;22.95;14.27;;;;;;;16.44;73.27;96320.03;4897305;29;20088;-76
2023/05/22 02:44:07;;;;;;;17.35;14.13;;;;;;;16.41;73.48;96317.03;4897473;29;20080;-76
2023/05/22 02:46:35;;;;;;;18.33;14.07;;;;;;;16.32;69.88;96323.66;4897376;29;20625;-76
2023/05/22 02:49:03;;;;;;;17.35;14.60;;;;;;;16.24;71.30;96322.13;4897334;29;20052;-76
2023/05/22 02:51:30;;;;;;;17.60;13.60;;;;;;;16.18;69.64;96317.75;4897608;29;20052;-76
2023/05/22 02:53:58;;;;;;;18.55;14.75;;;;;;;16.22;73.91;96313.66;4897199;29;20057;-76
2023/05/22 02:56:28;;;;;;;18.35;14.63;;;;;;;16.17;70.31;96316.16;4897181;29;20501;-76
2023/05/22 02:58:56;;;;;;;18.73;13.52;;;;;;;16.17;70.74;96318.78;4897237;29;20048;-76
2023/05/22 03:01:25;;;;;;;20.67;16.48;;;;;;;16.22;78.01;96321.53;4897162;29;20111;-76
2023/05/22 03:03:53;;;;;;;18.45;16.10;;;;;;;16.24;80.37;96324.75;4897137;29;20052;-76
2023/05/22 03:06:22;;;;;;;16.15;12.45;;;;;;;16.17;75.47;96327.47;4896973;29;20061;-76
2023/05/22 03:08:49;;;;;;;25.42;15.77;;;;;;;16.05;71.41;96324.81;4897226;29;20103;-76
2023/05/22 03:11:17;;;;;;;23.40;18.23;;;;;;;16.03;80.11;96324.25;4897230;29;20108;-76
2023/05/22 03:13:46;;;;;;;21.92;14.45;;;;;;;15.92;73.63;96322.38;4897020;29;20505;-76
2023/05/22 03:16:13;;;;;;;21.83;15.95;;;;;;;15.83;71.99;96318.41;4896556;29;20088;-76
2023/05/22 03:18:41;;;;;;;20.23;15.13;;;;;;;15.76;70.93;96330.84;4896818;29;20060;-76
2023/05/22 03:21:09;;;;;;;24.85;16.95;;;;;;;15.76;77.75;96330.84;4896698;29;20100;-76
2023/05/22 03:23:36;;;;;;;23.88;14.77;;;;;;;15.77;74.47;96332.47;4897175;29;20453;-76
2023/05/22 03:26:04;;;;;;;18.98;13.73;;;;;;;15.65;71.31;96335.00;4897057;29;20057;-76
2023/05/22 03:28:32;;;;;;;21.45;14.13;;;;;;;15.60;70.63;96332.22;4896978;29;20432;-76
2023/05/22 03:31:01;;;;;;;26.88;15.13;;;;;;;15.57;72.16;96335.31;4897428;29;20091;-76
2023/05/22 03:33:28;;;;;;;22.52;16.48;;;;;;;15.63;78.28;96337.84;4896796;29;20437;-76
2023/05/22 03:35:56;;;;;;;23.48;15.55;;;;;;;15.74;81.62;96332.91;4896812;29;20116;-75
2023/05/22 03:38:23;;;;;;;23.65;17.25;;;;;;;15.76;83.88;96330.84;4897000;29;20048;-76
2023/05/22 03:40:51;;;;;;;17.20;15.05;;;;;;;15.74;81.23;96332.91;4896996;29;20059;-76
2023/05/22 03:43:19;;;;;;;19.00;15.40;;;;;;;15.73;82.41;96331.31;4896976;29;20056;-76
2023/05/22 03:45:46;;;;;;;17.95;13.45;;;;;;;15.64;75.81;96328.13;4896649;29;20104;-76
2023/05/22 03:48:15;;;;;;;21.27;14.25;;;;;;;15.56;74.41;96331.06;4896979;29;20144;-76
2023/05/22 03:50:43;;;;;;;15.38;12.13;;;;;;;15.50;73.52;96337.19;4896869;29;20512;-76
2023/05/22 03:53:10;;;;;;;19.98;15.73;;;;;;;15.57;80.79;96333.47;4896978;29;20060;-76
2023/05/22 03:55:38;;;;;;;22.25;17.40;;;;;;;15.65;86.19;96333.19;4897255;29;20056;-76
2023/05/22 03:58:06;;;;;;;17.33;14.00;;;;;;;15.65;80.74;96335.00;4896908;29;20484;-76
2023/05/22 04:00:33;;;;;;;18.23;15.07;;;;;;;15.65;78.79;96341.06;4896621;29;20060;-76
2023/05/22 04:03:01;;;;;;;18.58;15.15;;;;;;;15.60;80.66;96335.66;4896766;29;20104;-76
2023/05/22 04:05:30;;;;;;;15.15;13.48;;;;;;;15.56;76.11;96342.38;4896525;29;20059;-76
2023/05/22 04:07:58;;;;;;;15.68;13.98;;;;;;;15.51;79.30;96347.47;4896731;29;20505;-76
2023/05/22 04:10:26;;;;;;;19.27;14.40;;;;;;;15.52;79.46;96337.78;4896456;29;20506;-76
2023/05/22 04:12:53;;;;;;;17.27;14.38;;;;;;;15.53;75.79;96342.03;4896853;29;20080;-76
2023/05/22 04:15:22;;;;;;;17.70;14.23;;;;;;;15.45;73.32;96337.84;4896806;29;20056;-76
2023/05/22 04:17:51;;;;;;;19.85;15.27;;;;;;;15.38;72.52;96345.00;4896643;29;20049;-76
2023/05/22 04:20:21;;;;;;;21.95;16.77;;;;;;;15.40;76.66;96348.22;4896474;29;20057;-76
2023/05/22 04:22:50;;;;;;;19.30;14.80;;;;;;;15.43;73.32;96353.81;4896953;29;20525;-77
2023/05/22 04:25:17;;;;;;;16.42;14.68;;;;;;;15.33;72.20;96347.50;4896375;29;20548;-76
2023/05/22 04:27:46;;;;;;;18.83;16.17;;;;;;;15.32;77.92;96348.50;4896877;29;20592;-76
2023/05/22 04:30:15;;;;;;;21.83;14.10;;;;;;;15.34;75.72;96351.72;4899301;29;20108;-76
2023/05/22 04:32:43;;;;;;;15.80;14.10;;;;;;;15.25;72.78;96356.44;4900129;29;20052;-76
2023/05/22 04:35:11;;;;;;;18.08;14.43;;;;;;;15.16;72.41;96360.38;4899723;29;20148;-76
2023/05/22 04:37:41;;;;;;;21.70;15.43;;;;;;;15.14;75.17;96359.78;4899913;29;20084;-76
2023/05/22 04:40:11;;;;;;;21.00;16.52;;;;;;;15.23;80.30;96361.91;4899808;29;20056;-76
2023/05/22 04:42:39;;;;;;;24.95;16.90;;;;;;;15.24;78.22;96360.09;4899857;29;20095;-77
2023/05/22 04:45:07;;;;;;;21.20;15.27;;;;;;;15.20;74.85;96364.97;4899599;29;20059;-76
2023/05/22 04:47:37;;;;;;;16.95;12.50;;;;;;;15.19;73.31;96362.56;4899931;29;20441;-76
2023/05/22 04:50:06;;;;;;;15.27;13.25;;;;;;;15.19;72.80;96367.81;4899627;29;20049;-76
2023/05/22 04:52:33;;;;;;;19.58;12.70;;;;;;;15.22;72.68;96357.69;4899737;29;20131;-76
2023/05/22 04:55:01;;;;;;;14.77;11.73;;;;;;;15.27;72.01;96367.53;4899709;29;20484;-76
2023/05/22 04:57:32;;;;;;;14.27;11.63;;;;;;;15.30;72.04;96368.94;4908332;29;20088;-76
2023/05/22 05:00:00;;;;;;;18.23;15.63;;;;;;;15.38;76.13;96360.78;4917627;29;20152;-76
2023/05/22 05:02:28;;;;;;;19.65;16.98;;;;;;;15.46;81.12;96365.75;4917217;29;20057;-77
2023/05/22 05:04:55;;;;;;;18.02;11.80;;;;;;;15.49;76.94;96367.13;4916263;29;20147;-76
2023/05/22 05:07:23;;;;;;;20.05;17.15;;;;;;;15.63;83.60;96373.84;4901461;29;20051;-76
2023/05/22 05:09:51;;;;;;;25.50;17.83;;;;;;;15.78;87.54;96373.50;4907837;29;20064;-76
2023/05/22 05:12:19;;;;;;;14.57;12.48;;;;;;;15.80;81.29;96377.53;4912241;29;20433;-76
2023/05/22 05:14:48;;;;;;;17.75;13.82;;;;;;;15.77;80.94;96372.72;4912816;29;20085;-76
2023/05/22 05:17:15;;;;;;;19.20;14.40;;;;;;;15.80;81.49;96374.09;4904366;29;20092;-76
2023/05/22 05:19:43;;;;;;;18.33;13.93;;;;;;;15.84;79.10;96372.63;4910737;29;20084;-76
2023/05/22 05:22:10;;;;;;;21.20;12.80;;;;;;;15.84;74.76;96367.38;4901794;29;20084;-76
2023/05/22 05:24:38;;;;;;;18.67;16.35;;;;;;;15.88;79.69;96365.91;4905222;29;20079;-78
2023/05/22 05:27:06;;;;;;;18.50;14.68;;;;;;;15.86;76.74;96362.69;4906118;29;20524;-78
2023/05/22 05:29:33;;;;;;;21.95;18.40;;;;;;;15.94;82.28;96364.22;4908128;29;20049;-78
2023/05/22 05:32:03;;;;;;;21.42;16.92;;;;;;;16.02;82.68;96374.44;4899186;29;20592;-76
2023/05/22 05:34:31;;;;;;;17.30;12.57;;;;;;;15.98;76.25;96366.19;4899454;29;20053;-77
2023/05/22 05:36:59;;;;;;;18.80;13.38;;;;;;;15.96;73.81;96365.63;4915666;29;20076;-76
2023/05/22 05:39:26;;;;;;;20.50;17.52;;;;;;;16.02;79.90;96362.06;4917801;29;20048;-76
2023/05/22 05:41:54;;;;;;;18.77;13.55;;;;;;;16.06;75.69;96360.63;4917590;29;20121;-76
2023/05/22 05:44:22;;;;;;;18.38;12.65;;;;;;;16.06;72.81;96357.97;4897923;29;20139;-76
2023/05/22 05:46:49;;;;;;;22.45;13.32;;;;;;;16.08;72.09;96359.59;4898764;29;20421;-76
2023/05/22 05:49:19;;;;;;;18.60;13.70;;;;;;;16.12;71.17;96360.78;4898233;29;20398;-76
2023/05/22 05:51:46;;;;;;;17.55;12.93;;;;;;;16.16;71.28;96357.47;4898583;29;20096;-76
2023/05/22 05:54:14;;;;;;;19.45;15.43;;;;;;;16.21;73.64;96354.97;4916304;29;20052;-75
2023/05/22 05:56:42;;;;;;;19.83;14.00;;;;;;;16.25;71.36;96352.69;4912674;29;20473;-76
2023/05/22 07:14:16;;;;;;;12.52;10.93;;;;;;;18.73;64.11;96379.66;1746935;23;20390;-79
2023/05/22 10:08:21;;;;;;;9.60;8.57;;;;;;;24.41;46.67;96362.78;1569815;23;20296;-80
2023/05/22 10:14:12;;;;;;;8.85;7.95;;;;;;;24.56;46.66;96353.91;4886051;29;20040;-79
2023/05/22 10:16:55;;;;;;;8.65;5.85;;;;;;;24.63;50.07;96359.72;4988916;23;20152;-79
2023/05/22 10:19:31;;;;;;;8.13;7.22;;;;;;;24.67;47.89;96345.56;4952037;23;20056;-80
2023/05/22 10:22:08;;;;;;;8.27;7.47;;;;;;;24.75;47.39;96346.03;4923198;29;20165;-80
2023/05/22 11:28:56;;;;;;;7.78;7.07;;;;;;;25.78;45.34;96322.63;5027767;23;20116;-85
2023/05/22 11:34:06;;;;;;;9.18;8.23;;;;;;;25.88;43.32;96319.84;5018058;23;20093;-81
2023/05/22 11:36:47;;;;;;;8.48;7.65;;;;;;;25.93;43.84;96310.16;4903334;29;20056;-82
2023/05/22 11:39:26;;;;;;;8.70;7.80;;;;;;;26.00;43.28;96306.06;4906253;29;20037;-81
2023/05/22 11:41:55;;;;;;;8.48;7.55;;;;;;;26.06;43.67;96307.59;4950822;23;20041;-83
2023/05/22 12:00:40;;;;;;;8.45;7.53;;;;;;;26.36;42.42;96283.38;5051044;23;20136;-78
2023/05/22 12:03:08;;;;;;;7.88;7.18;;;;;;;26.43;42.24;96281.13;4883834;29;20049;-77
2023/05/22 12:05:36;;;;;;;7.75;7.05;;;;;;;26.49;44.92;96280.75;4884193;29;20063;-79
2023/05/22 12:08:04;;;;;;;11.98;7.95;;;;;;;26.52;42.49;96282.03;4887785;29;20060;-78
2023/05/22 12:10:32;;;;;;;8.02;7.22;;;;;;;26.58;45.31;96283.59;4887556;29;20081;-78
2023/05/22 12:12:59;;;;;;;9.00;8.02;;;;;;;26.61;41.21;96275.00;4885633;29;20048;-77
2023/05/22 12:15:27;;;;;;;8.27;6.82;;;;;;;26.67;41.73;96275.69;4880602;29;20061;-76
2023/05/22 12:17:57;;;;;;;13.15;8.90;;;;;;;26.70;40.65;96270.56;4880702;29;20045;-77
2023/05/22 12:20:29;;;;;;;14.57;8.30;;;;;;;26.75;40.30;96271.56;4879403;29;20482;-76
2023/05/22 12:22:57;;;;;;;12.50;8.82;;;;;;;26.75;40.43;96260.88;4880207;29;20536;-77
2023/05/22 12:25:33;;;;;;;8.82;7.93;;;;;;;26.77;41.27;96269.38;4880346;29;20053;-77
2023/05/22 12:28:01;;;;;;;10.32;7.78;;;;;;;26.77;39.75;96264.03;4879457;29;20055;-77
2023/05/22 12:30:39;;;;;;;9.93;7.70;;;;;;;26.83;40.71;96265.50;4879839;29;20045;-77
2023/05/22 12:33:13;;;;;;;11.38;7.40;;;;;;;26.89;40.10;96261.66;4879494;29;20048;-77
2023/05/22 12:35:41;;;;;;;8.13;7.32;;;;;;;26.92;39.92;96253.06;4879886;29;20056;-77
2023/05/22 12:38:12;;;;;;;8.90;7.72;;;;;;;26.94;41.05;96250.91;4880641;29;20053;-77
2023/05/22 12:40:39;;;;;;;8.85;7.30;;;;;;;26.95;41.05;96249.78;4881852;29;20105;-78
2023/05/22 12:43:07;;;;;;;9.23;8.32;;;;;;;26.99;40.13;96255.34;4885112;29;20060;-76
2023/05/22 12:45:35;;;;;;;7.60;6.88;;;;;;;27.01;40.25;96248.63;4876488;29;20490;-77
2023/05/22 12:48:03;;;;;;;8.15;7.45;;;;;;;27.02;39.03;96250.19;4875855;29;20053;-78
2023/05/22 12:50:32;;;;;;;7.80;7.10;;;;;;;27.02;39.43;96250.19;4883988;29;20081;-78
2023/05/22 12:53:01;;;;;;;8.50;7.68;;;;;;;27.05;44.65;96244.25;4884148;29;20049;-77
2023/05/22 12:55:29;;;;;;;9.05;7.18;;;;;;;27.05;40.09;96249.63;4882495;29;20067;-76
2023/05/22 12:57:57;;;;;;;8.65;7.22;;;;;;;27.10;39.67;96254.06;4866626;29;20110;-77
2023/05/22 13:00:25;;;;;;;8.13;7.13;;;;;;;27.13;38.91;96240.09;4883984;29;20053;-77
2023/05/22 13:02:53;;;;;;;8.38;7.47;;;;;;;27.15;39.33;96245.16;4883474;29;20060;-77
2023/05/22 13:05:21;;;;;;;7.30;6.70;;;;;;;27.17;38.75;96253.69;4883143;29;20056;-78
2023/05/22 13:07:50;;;;;;;8.43;7.70;;;;;;;27.12;41.08;96250.00;4884356;29;20105;-77
2023/05/22 13:10:18;;;;;;;8.50;7.25;;;;;;;27.10;39.45;96251.41;4886387;29;20505;-78
2023/05/22 13:12:49;;;;;;;7.75;6.95;;;;;;;27.12;39.24;96250.00;4883656;29;20473;-79
2023/05/22 13:15:20;;;;;;;8.63;7.63;;;;;;;27.15;38.72;96247.81;4889540;29;20053;-76
2023/05/22 13:17:51;;;;;;;10.30;6.13;;;;;;;27.18;38.13;96247.22;4890813;29;20105;-78
2023/05/22 13:20:19;;;;;;;6.30;5.65;;;;;;;27.22;38.08;96240.22;4882910;29;20072;-77
2023/05/22 13:22:46;;;;;;;7.05;6.45;;;;;;;27.24;37.61;96240.72;4882803;29;20136;-78
2023/05/22 13:25:17;;;;;;;6.75;6.13;;;;;;;27.24;36.80;96238.81;4883406;29;20093;-78
2023/05/22 13:27:45;;;;;;;6.27;5.77;;;;;;;27.25;38.06;96234.28;4882359;29;20509;-77
2023/05/22 13:30:13;;;;;;;10.18;6.55;;;;;;;27.27;36.76;96229.44;4879907;29;20621;-77
2023/05/22 13:32:41;;;;;;;6.93;6.32;;;;;;;27.28;36.02;96231.78;4880702;29;20064;-78
2023/05/22 13:35:09;;;;;;;7.63;5.78;;;;;;;27.28;36.59;96231.78;4880260;29;20056;-78
2023/05/22 13:37:37;;;;;;;6.70;6.10;;;;;;;27.29;35.54;96221.91;4880279;29;20656;-79
2023/05/22 13:40:06;;;;;;;6.65;5.80;;;;;;;27.31;34.97;96230.41;4880806;29;20534;-78
2023/05/22 13:42:35;;;;;;;7.20;5.80;;;;;;;27.34;34.85;96221.78;4881126;29;20470;-78
2023/05/22 13:45:03;;;;;;;7.93;5.95;;;;;;;27.36;33.56;96224.94;4880659;29;20057;-78
2023/05/22 13:47:31;;;;;;;7.47;5.82;;;;;;;27.36;34.89;96210.78;4879098;29;20061;-78
2023/05/22 13:49:59;;;;;;;8.18;6.50;;;;;;;27.40;34.98;96214.41;4879516;29;20065;-75
2023/05/22 13:52:27;;;;;;;7.43;5.97;;;;;;;27.42;34.98;96220.28;4879382;29;20064;-78
2023/05/22 13:54:55;;;;;;;8.25;5.88;;;;;;;27.41;34.44;96216.03;4881735;29;20488;-79
2023/05/22 13:57:22;;;;;;;8.73;5.78;;;;;;;27.38;34.39;96212.06;4881197;29;20695;-78
2023/05/22 13:59:51;;;;;;;7.70;5.68;;;;;;;27.37;34.53;96220.38;4880526;29;20079;-79
2023/05/22 14:02:19;;;;;;;6.68;5.43;;;;;;;27.37;34.67;96217.72;4883206;29;20121;-78
2023/05/22 14:04:47;;;;;;;6.43;5.55;;;;;;;27.36;33.77;96219.59;4883491;29;20486;-77
2023/05/22 14:07:15;;;;;;;6.85;5.55;;;;;;;27.33;33.17;96215.63;4879874;29;20065;-77
2023/05/22 14:09:43;;;;;;;8.00;6.13;;;;;;;27.32;32.91;96219.38;4880207;29;20085;-78
2023/05/22 14:12:10;;;;;;;6.30;5.30;;;;;;;27.29;33.25;96219.22;4886648;29;20438;-78
2023/05/22 14:14:38;;;;;;;7.78;5.65;;;;;;;27.25;33.45;96215.53;4877332;29;20118;-78
2023/05/22 14:17:08;;;;;;;6.80;5.78;;;;;;;27.22;33.79;96216.13;4883829;29;20479;-79
2023/05/22 14:19:35;;;;;;;6.10;5.50;;;;;;;27.18;35.15;96226.63;4880697;29;20112;-80
2023/05/22 14:22:04;;;;;;;7.47;5.40;;;;;;;27.15;33.33;96229.09;4881680;29;20060;-79
2023/05/22 14:24:31;;;;;;;6.65;5.53;;;;;;;27.08;37.03;96222.25;4879359;29;20085;-77
2023/05/22 14:26:59;;;;;;;8.18;6.68;;;;;;;27.05;34.74;96217.50;4878668;29;20057;-77
2023/05/22 14:29:28;;;;;;;9.82;5.78;;;;;;;27.03;34.58;96217.00;4879660;29;20053;-78
2023/05/22 14:32:03;;;;;;;5.78;5.18;;;;;;;27.02;33.52;96220.75;4880220;29;20049;-78
2023/05/22 14:34:32;;;;;;;5.97;4.85;;;;;;;27.00;32.03;96219.47;4880104;29;20061;-78
2023/05/22 14:37:00;;;;;;;5.25;4.75;;;;;;;26.97;32.89;96210.13;4880112;29;20053;-76
2023/05/22 14:39:27;;;;;;;6.68;5.22;;;;;;;26.94;32.87;96208.06;4880114;29;20057;-78
2023/05/22 14:41:55;;;;;;;5.95;4.63;;;;;;;26.91;33.61;96205.97;4880627;29;20053;-77
2023/05/22 14:44:23;;;;;;;6.50;4.60;;;;;;;26.90;32.83;96205.19;4879666;29;20060;-77
2023/05/22 14:46:52;;;;;;;6.90;6.28;;;;;;;26.86;37.05;96214.88;4875072;29;20053;-76
2023/05/22 14:49:20;;;;;;;8.18;6.68;;;;;;;26.78;37.71;96222.81;4861025;29;20069;-78
2023/05/22 14:51:49;;;;;;;7.68;6.55;;;;;;;26.66;37.61;96232.09;4867442;29;20120;-78
2023/05/22 14:54:17;;;;;;;8.52;7.15;;;;;;;26.57;39.10;96235.75;4878464;29;20443;-77
2023/05/22 14:56:46;;;;;;;8.30;6.70;;;;;;;26.46;41.67;96240.44;4878867;29;20141;-77
2023/05/22 14:59:13;;;;;;;11.63;6.95;;;;;;;26.35;39.86;96241.66;4879242;29;20501;-78
2023/05/22 15:01:41;;;;;;;9.88;6.95;;;;;;;26.25;40.80;96248.78;4869775;29;20097;-77
2023/05/22 15:04:09;;;;;;;11.00;6.60;;;;;;;26.16;43.23;96255.88;4872385;29;20048;-77
2023/05/22 15:06:36;;;;;;;10.73;7.13;;;;;;;26.08;44.06;96259.19;4870436;29;20128;-77
2023/05/22 15:09:05;;;;;;;7.43;6.72;;;;;;;26.02;46.13;96263.00;4881727;29;20053;-79
2023/05/22 15:11:33;;;;;;;8.18;6.63;;;;;;;25.94;41.33;96258.34;4882270;29;20053;-79
2023/05/22 15:14:01;;;;;;;8.07;6.43;;;;;;;25.87;46.46;96259.44;4881515;29;20097;-78
2023/05/22 15:16:28;;;;;;;8.90;7.20;;;;;;;25.84;42.80;96253.88;4880258;29;20057;-76
2023/05/22 15:18:56;;;;;;;7.38;6.68;;;;;;;25.80;48.08;96264.38;4878061;29;20060;-78
2023/05/22 15:21:24;;;;;;;8.65;6.75;;;;;;;25.75;47.09;96261.75;4876673;29;20053;-79
2023/05/22 15:23:52;;;;;;;7.75;6.95;;;;;;;25.70;44.46;96267.16;4878148;29;20056;-79
2023/05/22 15:26:21;;;;;;;10.65;7.70;;;;;;;25.62;48.78;96278.47;4881568;29;20083;-77
2023/05/22 15:28:48;;;;;;;8.75;6.95;;;;;;;25.51;51.09;96282.34;4884630;29;20530;-79
2023/05/22 15:31:16;;;;;;;10.75;7.05;;;;;;;25.38;50.88;96283.81;4882086;29;20072;-80
2023/05/22 15:33:45;;;;;;;7.82;7.13;;;;;;;25.18;51.26;96274.94;4884681;29;20116;-79
2023/05/22 15:36:12;;;;;;;7.38;6.65;;;;;;;25.07;53.13;96274.22;4884076;29;20117;-78
2023/05/22 15:38:41;;;;;;;6.95;6.25;;;;;;;24.97;50.95;96277.03;4884427;29;20057;-80
2023/05/22 15:41:08;;;;;;;7.30;6.30;;;;;;;24.89;47.48;96264.28;4883892;29;20441;-79
2023/05/22 15:43:37;;;;;;;8.77;6.97;;;;;;;24.81;46.77;96272.88;4883120;29;20061;-79
2023/05/22 15:46:05;;;;;;;11.57;6.82;;;;;;;24.75;47.17;96266.81;4882353;29;20088;-79
2023/05/22 15:48:33;;;;;;;8.05;6.82;;;;;;;24.72;48.05;96282.56;4883567;29;20421;-80
2023/05/22 15:51:00;;;;;;;7.15;6.45;;;;;;;24.70;49.36;96276.72;4883359;29;20467;-80
2023/05/22 15:53:28;;;;;;;8.23;7.07;;;;;;;24.64;47.46;96276.78;4882929;29;20049;-79
2023/05/22 15:55:55;;;;;;;8.70;7.13;;;;;;;24.61;50.58;96276.53;4886027;29;20060;-78
2023/05/22 15:58:23;;;;;;;7.45;6.18;;;;;;;24.56;47.38;96279.25;4889419;29;20117;-78
2023/05/22 16:00:52;;;;;;;7.13;6.43;;;;;;;24.50;48.52;96275.81;4882850;29;20078;-79
2023/05/22 16:03:20;;;;;;;7.50;6.72;;;;;;;24.43;47.50;96275.31;4879140;29;20061;-79
2023/05/22 16:05:47;;;;;;;7.35;6.65;;;;;;;24.36;55.11;96280.16;4863570;29;20058;-79
2023/05/22 16:08:16;;;;;;;9.75;7.18;;;;;;;24.32;54.69;96279.91;4875467;29;20057;-78
2023/05/22 16:10:45;;;;;;;9.80;8.80;;;;;;;24.27;53.78;96278.09;4881384;29;20059;-78
2023/05/22 16:13:13;;;;;;;12.18;7.85;;;;;;;24.17;49.22;96272.81;4881602;29;20049;-78
2023/05/22 16:15:43;;;;;;;11.93;8.45;;;;;;;24.09;48.13;96283.28;4887048;29;20051;-78
2023/05/22 16:18:12;;;;;;;11.88;8.73;;;;;;;23.97;47.90;96289.72;4897382;29;20064;-78
2023/05/22 16:20:40;;;;;;;11.85;9.15;;;;;;;23.89;48.07;96281.53;4886669;29;20405;-78
2023/05/22 16:23:08;;;;;;;11.25;9.73;;;;;;;23.85;53.28;96282.06;4886545;29;20064;-79
2023/05/22 16:25:36;;;;;;;14.73;9.82;;;;;;;23.84;49.19;96280.47;4890694;29;20057;-79
2023/05/22 16:28:04;;;;;;;11.10;8.65;;;;;;;23.83;50.89;96278.88;4889827;29;20068;-77
2023/05/22 16:30:32;;;;;;;11.48;9.18;;;;;;;23.84;48.91;96279.69;4888137;29;20581;-79
2023/05/22 16:32:59;;;;;;;12.48;8.90;;;;;;;23.83;49.67;96284.22;4892083;29;20132;-79
2023/05/22 16:35:29;;;;;;;10.85;7.88;;;;;;;23.82;49.47;96300.47;4890442;29;20053;-79
2023/05/22 16:37:56;;;;;;;9.93;8.93;;;;;;;23.79;55.79;96293.81;4884255;29;20132;-77
2023/05/22 16:40:24;;;;;;;9.75;8.75;;;;;;;23.76;53.33;96293.56;4884539;29;20049;-77
2023/05/22 16:42:52;;;;;;;10.45;8.27;;;;;;;23.70;51.78;96298.06;4884513;29;20475;-77
2023/05/22 16:45:19;;;;;;;10.57;8.13;;;;;;;23.73;57.52;96305.53;4884213;29;20813;-79
2023/05/22 16:47:47;;;;;;;13.02;9.13;;;;;;;23.69;53.50;96293.03;4887291;29;20061;-78
2023/05/22 16:50:14;;;;;;;12.27;9.98;;;;;;;23.64;51.59;96286.66;4904597;29;20088;-78
2023/05/22 16:52:43;;;;;;;13.73;10.75;;;;;;;23.62;52.19;96293.34;4884207;29;20053;-79
2023/05/22 16:55:11;;;;;;;33.22;25.52;;;;;;;23.60;52.96;96282.16;4884258;29;20088;-79
2023/05/22 16:57:39;;;;;;;18.52;13.98;;;;;;;23.60;57.26;96285.59;4898863;29;20049;-78
2023/05/22 17:00:09;;;;;;;12.90;9.40;;;;;;;23.55;51.45;96290.13;4902022;29;20064;-79
2023/05/22 17:02:37;;;;;;;12.82;8.32;;;;;;;23.50;51.07;96282.97;4884511;29;20078;-79
2023/05/22 17:05:06;;;;;;;10.55;8.32;;;;;;;23.47;50.07;96288.06;4905707;29;20083;-85